Time;durP1;ratioP1;P1;durP2;ratioP2;P2;SDS_P1;SDS_P2;PMS_P1;PMS_P2;Temp;Humidity;BMP_temperature;BMP_pressure;BME280_temperature;BME280_humidity;BME280_pressure;Samples;Min_cycle;Max_cycle;Signal;HPM_P1;HPM_P2
2021/03/05 00:00:35;;;;;;;87.70;45.22;;;281.60;1152.00;;;;;;5053458;28;20025;-66
2021/03/05 00:03:01;;;;;;;79.70;45.45;;;256.90;1126.40;;;;;;5050233;28;20032;-64
2021/03/05 00:05:27;;;;;;;76.15;43.03;;;256.80;1152.00;;;;;;5052046;28;20383;-64
2021/03/05 00:07:52;;;;;;;75.45;43.65;;;256.90;1126.40;;;;;;5022855;28;20120;-63
2021/03/05 00:10:24;;;;;;;72.43;42.03;;;256.90;1126.40;;;;;;5048375;28;20493;-64
2021/03/05 00:12:50;;;;;;;70.85;42.42;;;281.60;1126.40;;;;;;5064094;28;20398;-65
2021/03/05 00:15:15;;;;;;;72.28;39.35;;;281.70;1126.40;;;;;;5053634;28;20040;-64
2021/03/05 00:17:41;;;;;;;65.40;39.08;;;281.80;1100.80;;;;;;5053820;28;20453;-65
2021/03/05 00:20:11;;;;;;;68.10;39.20;;;281.80;1100.80;;;;;;5053864;28;20033;-64
2021/03/05 00:22:37;;;;;;;64.47;37.65;;;281.80;1075.20;;;;;;5053963;28;20033;-63
2021/03/05 00:25:04;;;;;;;64.75;38.10;;;281.80;1075.20;;;;;;5061450;28;20024;-64
2021/03/05 00:27:29;;;;;;;60.97;36.42;;;281.80;1075.20;;;;;;5073720;28;20067;-64
2021/03/05 00:29:56;;;;;;;61.25;35.35;;;281.80;1075.20;;;;;;5070072;28;20105;-64
2021/03/05 00:32:21;;;;;;;63.75;35.28;;;281.90;1049.60;;;;;;5054448;28;20025;-63
2021/03/05 00:34:47;;;;;;;59.90;33.17;;;281.90;1049.60;;;;;;5067131;28;20025;-64
2021/03/05 00:37:13;;;;;;;60.35;35.70;;;281.80;1075.20;;;;;;5063370;28;20019;-64
2021/03/05 00:39:38;;;;;;;62.58;34.72;;;281.80;1075.20;;;;;;5073142;28;20078;-65
2021/03/05 00:42:04;;;;;;;60.03;35.90;;;281.80;1049.60;;;;;;5073115;28;20047;-65
2021/03/05 00:44:30;;;;;;;65.93;39.25;;;281.80;1075.20;;;;;;5059749;28;20078;-64
2021/03/05 00:46:56;;;;;;;70.50;40.38;;;281.70;1075.20;;;;;;5053355;28;20013;-65
2021/03/05 00:49:22;;;;;;;68.47;40.72;;;281.70;1100.80;;;;;;5046571;28;20123;-59
2021/03/05 00:51:47;;;;;;;88.47;44.70;;;281.60;1126.40;;;;;;5073117;28;20017;-65
2021/03/05 00:54:13;;;;;;;82.57;46.10;;;256.80;1126.40;;;;;;5072834;28;20030;-64
2021/03/05 00:56:39;;;;;;;73.30;41.78;;;256.70;1126.40;;;;;;5073117;28;20468;-63
2021/03/05 00:59:05;;;;;;;72.35;41.67;;;256.40;1126.40;;;;;;5060313;28;20029;-65
2021/03/05 01:01:30;;;;;;;79.35;43.78;;;256.20;1126.40;;;;;;5053239;28;20025;-65
2021/03/05 01:03:56;;;;;;;90.30;50.78;;;231.30;1152.00;;;;;;5052625;28;20068;-65
2021/03/05 01:06:22;;;;;;;101.47;53.95;;;231.00;1203.20;;;;;;5052836;28;20356;-65
2021/03/05 01:08:48;;;;;;;108.53;57.58;;;230.80;1228.80;;;;;;5052891;28;20025;-64
2021/03/05 01:11:13;;;;;;;101.40;54.03;;;230.60;1254.40;;;;;;5065422;28;20028;-65
2021/03/05 01:13:40;;;;;;;97.22;52.45;;;230.40;1280.00;;;;;;5058704;28;20040;-64
2021/03/05 01:16:05;;;;;;;99.57;50.85;;;205.70;1305.60;;;;;;5061697;28;20043;-65
2021/03/05 01:18:31;;;;;;;99.47;51.28;;;205.60;1305.60;;;;;;5052787;28;20028;-65
2021/03/05 01:20:57;;;;;;;88.80;49.20;;;205.50;1331.20;;;;;;5052503;28;20032;-64
2021/03/05 01:23:23;;;;;;;90.55;50.63;;;205.50;1331.20;;;;;;5053078;28;20040;-65
2021/03/05 01:25:48;;;;;;;82.05;44.38;;;205.50;1331.20;;;;;;5052532;28;20397;-65
2021/03/05 01:28:14;;;;;;;80.63;46.10;;;205.50;1331.20;;;;;;5053021;28;20021;-65
2021/03/05 01:30:40;;;;;;;83.88;46.78;;;205.50;1331.20;;;;;;5052188;28;20049;-65
2021/03/05 01:33:06;;;;;;;70.85;40.90;;;205.50;1305.60;;;;;;5052405;28;20108;-63
2021/03/05 01:35:32;;;;;;;76.68;41.75;;;205.50;1280.00;;;;;;5052782;28;20505;-62
2021/03/05 01:37:57;;;;;;;70.72;37.55;;;205.60;1280.00;;;;;;5052576;28;20028;-65
2021/03/05 01:40:30;;;;;;;69.00;37.88;;;205.60;1254.40;;;;;;5052609;28;20425;-63
2021/03/05 01:42:56;;;;;;;70.53;38.83;;;205.70;1228.80;;;;;;5047472;28;20079;-65
2021/03/05 01:45:25;;;;;;;62.72;35.72;;;205.70;1228.80;;;;;;5053052;28;20348;-65
2021/03/05 01:47:55;;;;;;;;;;;230.40;1228.80;;;;;;5052757;28;20017;-64
2021/03/05 01:50:24;;;;;;;61.83;34.88;;;230.40;1203.20;;;;;;5052315;28;19909;-64
2021/03/05 01:53:00;;;;;;;61.65;35.80;;;230.40;1203.20;;;;;;5052371;28;20044;-64
2021/03/05 01:55:25;;;;;;;61.35;36.33;;;230.40;1203.20;;;;;;5050646;28;20512;-64
2021/03/05 01:57:51;;;;;;;58.40;34.55;;;230.40;1177.60;;;;;;5051834;28;20028;-64
2021/03/05 02:00:32;;;;;;;63.90;38.00;;;230.50;1177.60;;;;;;5052004;28;20096;-65
2021/03/05 02:02:57;;;;;;;65.70;37.20;;;230.50;1177.60;;;;;;5034160;28;20029;-64
2021/03/05 02:05:23;;;;;;;66.25;35.80;;;230.50;1177.60;;;;;;5052505;28;20028;-64
2021/03/05 02:07:49;;;;;;;65.28;35.78;;;230.50;1177.60;;;;;;5051809;28;20067;-63
2021/03/05 02:10:15;;;;;;;67.03;36.33;;;230.50;1177.60;;;;;;5051705;28;20363;-63
2021/03/05 02:12:41;;;;;;;63.75;36.88;;;230.50;1177.60;;;;;;5052564;28;20112;-67
2021/03/05 02:15:08;;;;;;;62.60;37.13;;;230.50;1177.60;;;;;;5053454;28;20506;-64
2021/03/05 02:17:43;;;;;;;64.43;37.78;;;230.40;1177.60;;;;;;5053643;28;20387;-64
2021/03/05 02:20:12;;;;;;;65.57;35.88;;;230.40;1177.60;;;;;;5051952;28;20028;-64
2021/03/05 02:23:14;;;;;;;63.15;34.95;;;230.50;1177.60;;;;;;5045184;28;20036;-64
2021/03/05 02:26:04;;;;;;;53.83;35.15;;;230.40;1177.60;;;;;;5046651;28;20083;-64
2021/03/05 02:29:00;;;;;;;61.00;35.13;;;230.40;1177.60;;;;;;5041668;28;20427;-63
2021/03/05 02:31:47;;;;;;;55.95;33.42;;;230.50;1152.00;;;;;;5051604;28;20025;-65
2021/03/05 02:34:42;;;;;;;54.67;32.20;;;230.50;1152.00;;;;;;5051483;28;20036;-65
2021/03/05 02:37:10;;;;;;;55.83;33.53;;;230.50;1152.00;;;;;;4990305;28;20038;-65
2021/03/05 02:40:00;;;;;;;56.28;32.65;;;230.50;1152.00;;;;;;4987799;28;20516;-64
2021/03/05 02:42:33;;;;;;;51.10;30.52;;;230.50;1152.00;;;;;;4983355;28;20046;-63
2021/03/05 02:45:06;;;;;;;57.03;31.65;;;230.50;1152.00;;;;;;4990293;28;20540;-64
2021/03/05 02:47:33;;;;;;;60.00;33.00;;;230.50;1152.00;;;;;;4990094;28;20046;-63
2021/03/05 02:50:00;;;;;;;55.13;33.25;;;230.50;1152.00;;;;;;4973589;28;20030;-66
2021/03/05 02:52:28;;;;;;;55.67;31.17;;;230.60;1152.00;;;;;;4978749;28;20065;-65
2021/03/05 02:55:00;;;;;;;57.75;32.30;;;230.50;1152.00;;;;;;4990796;28;20057;-64
2021/03/05 02:57:29;;;;;;;55.58;32.85;;;230.60;1152.00;;;;;;4991033;28;20030;-63
2021/03/05 02:59:55;;;;;;;;;;;230.60;1152.00;;;;;;4990903;28;20042;-64
2021/03/05 03:02:26;;;;;;;57.90;32.63;;;230.60;1152.00;;;;;;4990428;28;19993;-64
2021/03/05 03:04:55;;;;;;;54.95;31.63;;;230.60;1152.00;;;;;;4990383;28;20026;-65
2021/03/05 03:07:21;;;;;;;56.00;29.92;;;230.60;1152.00;;;;;;4990868;28;20046;-65
2021/03/05 03:09:48;;;;;;;51.97;32.03;;;230.60;1152.00;;;;;;4990442;28;20074;-62
2021/03/05 03:12:16;;;;;;;54.95;30.85;;;230.60;1152.00;;;;;;4990672;28;20113;-64
2021/03/05 03:14:44;;;;;;;48.80;30.20;;;230.70;1152.00;;;;;;5072156;28;20110;-63
2021/03/05 03:17:11;;;;;;;49.67;30.25;;;230.70;1152.00;;;;;;5071554;28;20355;-64
2021/03/05 03:19:42;;;;;;;48.90;28.63;;;230.70;1152.00;;;;;;5072085;28;20028;-63
2021/03/05 03:22:08;;;;;;;47.75;28.38;;;230.70;1152.00;;;;;;5071894;28;20040;-63
2021/03/05 03:24:34;;;;;;;49.70;28.83;;;230.70;1152.00;;;;;;5073867;28;20543;-65
2021/03/05 03:27:00;;;;;;;47.53;29.73;;;230.80;1126.40;;;;;;5075406;28;20056;-65
2021/03/05 03:29:26;;;;;;;50.90;27.17;;;230.80;1126.40;;;;;;5075303;28;20469;-64
2021/03/05 03:31:53;;;;;;;48.53;26.27;;;230.90;1126.40;;;;;;5075170;28;20028;-64
2021/03/05 03:34:20;;;;;;;47.67;27.55;;;230.90;1126.40;;;;;;5075171;28;20068;-65
2021/03/05 03:36:47;;;;;;;43.53;24.58;;;230.90;1126.40;;;;;;5073631;28;20024;-62
2021/03/05 03:39:13;;;;;;;38.78;25.02;;;231.00;1100.80;;;;;;5074811;28;20030;-65
2021/03/05 03:41:39;;;;;;;42.53;24.20;;;231.00;1100.80;;;;;;5075484;28;20033;-64
2021/03/05 03:44:07;;;;;;;40.78;24.25;;;231.00;1100.80;;;;;;5075068;28;20039;-66
2021/03/05 03:46:37;;;;;;;41.05;25.33;;;231.10;1075.20;;;;;;5075439;28;20100;-64
2021/03/05 03:49:10;;;;;;;38.28;23.23;;;231.10;1075.20;;;;;;5057018;28;20505;-65
2021/03/05 03:51:41;;;;;;;38.47;23.40;;;231.10;1100.80;;;;;;5075480;28;20024;-65
2021/03/05 03:54:12;;;;;;;35.17;20.98;;;231.10;1100.80;;;;;;5074340;28;20045;-65
2021/03/05 03:56:38;;;;;;;37.55;22.73;;;231.10;1075.20;;;;;;5076345;28;20108;-63
2021/03/05 03:59:05;;;;;;;35.03;21.42;;;231.10;1075.20;;;;;;5077137;28;20165;-62
2021/03/05 04:01:33;;;;;;;35.92;20.23;;;231.10;1075.20;;;;;;5074013;28;20158;-63
2021/03/05 04:04:01;;;;;;;36.15;21.00;;;231.10;1075.20;;;;;;5074028;28;20028;-63
2021/03/05 04:06:29;;;;;;;38.80;22.03;;;231.10;1075.20;;;;;;5074275;28;20031;-64
2021/03/05 04:08:56;;;;;;;37.55;21.05;;;231.10;1100.80;;;;;;5074094;28;20268;-63
2021/03/05 04:11:23;;;;;;;39.38;20.30;;;231.10;1075.20;;;;;;5071815;28;20483;-62
2021/03/05 04:13:49;;;;;;;35.90;20.98;;;231.10;1075.20;;;;;;5073588;28;20040;-63
2021/03/05 04:16:15;;;;;;;33.13;20.73;;;231.10;1075.20;;;;;;5074015;28;20021;-64
2021/03/05 04:18:41;;;;;;;32.30;20.20;;;231.10;1075.20;;;;;;5073637;28;20040;-62
2021/03/05 04:21:13;;;;;;;34.00;20.52;;;231.20;1075.20;;;;;;5074070;28;20028;-62
2021/03/05 04:23:38;;;;;;;31.83;19.55;;;231.20;1075.20;;;;;;5073712;28;20029;-63
2021/03/05 04:26:04;;;;;;;32.65;20.92;;;231.20;1075.20;;;;;;5073980;28;20035;-64
2021/03/05 04:28:30;;;;;;;34.90;19.75;;;231.20;1100.80;;;;;;5073586;28;20032;-63
2021/03/05 04:30:56;;;;;;;33.17;20.42;;;231.20;1075.20;;;;;;5073633;28;20085;-66
2021/03/05 04:33:22;;;;;;;31.70;18.45;;;231.20;1075.20;;;;;;5073022;28;20047;-67
2021/03/05 04:35:48;;;;;;;28.17;18.67;;;231.20;1075.20;;;;;;5073542;28;20352;-67
2021/03/05 04:38:14;;;;;;;33.00;20.40;;;231.20;1075.20;;;;;;5073689;28;20044;-67
2021/03/05 04:40:39;;;;;;;29.25;19.23;;;231.30;1075.20;;;;;;5073512;28;20021;-67
2021/03/05 04:43:05;;;;;;;31.92;19.17;;;231.20;1075.20;;;;;;5058404;28;20056;-65
2021/03/05 04:45:31;;;;;;;34.38;19.05;;;231.20;1075.20;;;;;;5053496;28;20539;-66
2021/03/05 04:47:56;;;;;;;34.25;19.52;;;231.30;1075.20;;;;;;5053524;28;20029;-65
2021/03/05 04:50:22;;;;;;;31.48;18.98;;;231.30;1075.20;;;;;;5053021;28;20029;-64
2021/03/05 04:52:48;;;;;;;32.13;18.20;;;256.00;1049.60;;;;;;5053410;28;20025;-64
2021/03/05 04:55:14;;;;;;;30.70;19.48;;;231.30;1075.20;;;;;;5053483;28;20043;-64
2021/03/05 04:57:39;;;;;;;30.35;19.48;;;256.00;1075.20;;;;;;5053527;28;20592;-67
2021/03/05 05:00:06;;;;;;;31.88;18.15;;;256.00;1075.20;;;;;;5052842;28;20032;-66
2021/03/05 05:02:32;;;;;;;30.58;18.33;;;256.00;1075.20;;;;;;5052873;28;20028;-65
2021/03/05 05:04:57;;;;;;;33.53;21.55;;;256.10;1075.20;;;;;;5064683;28;20027;-65
2021/03/05 05:07:23;;;;;;;29.23;18.52;;;256.10;1075.20;;;;;;5072885;28;20030;-67
2021/03/05 05:09:49;;;;;;;34.40;19.70;;;256.10;1049.60;;;;;;5063123;28;20044;-65
2021/03/05 05:12:14;;;;;;;29.08;18.50;;;256.10;1049.60;;;;;;5052644;28;20060;-65
2021/03/05 05:14:40;;;;;;;32.05;19.38;;;256.20;1049.60;;;;;;5052969;28;20159;-65
2021/03/05 05:17:06;;;;;;;33.35;19.40;;;256.20;1049.60;;;;;;5042550;28;20014;-63
2021/03/05 05:19:31;;;;;;;31.40;19.35;;;256.20;1049.60;;;;;;5028145;28;20034;-64
2021/03/05 05:21:57;;;;;;;34.35;19.55;;;256.20;1049.60;;;;;;5029034;28;20020;-64
2021/03/05 05:24:23;;;;;;;33.55;19.90;;;256.20;1049.60;;;;;;5036312;28;20024;-66
2021/03/05 05:26:49;;;;;;;31.17;18.58;;;256.30;1049.60;;;;;;5041835;28;20112;-65
2021/03/05 05:29:14;;;;;;;31.52;18.85;;;256.30;1049.60;;;;;;5051599;28;20471;-65
2021/03/05 05:31:40;;;;;;;30.65;18.33;;;256.40;1049.60;;;;;;5050660;28;20117;-66
2021/03/05 05:34:06;;;;;;;30.17;19.27;;;256.40;1049.60;;;;;;5052159;28;20036;-64
2021/03/05 05:36:31;;;;;;;29.17;18.85;;;256.40;1049.60;;;;;;5052837;28;20013;-66
2021/03/05 05:38:57;;;;;;;30.38;19.15;;;256.50;1024.00;;;;;;5052391;28;20040;-67
2021/03/05 05:41:24;;;;;;;28.70;17.50;;;256.60;1024.00;;;;;;5054645;28;20029;-63
2021/03/05 05:43:50;;;;;;;28.65;18.83;;;256.70;1024.00;;;;;;5072692;28;20068;-67
2021/03/05 05:46:19;;;;;;;31.88;18.70;;;256.80;998.40;;;;;;5072461;28;20021;-64
2021/03/05 05:48:47;;;;;;;28.98;17.10;;;281.60;1024.00;;;;;;5072505;28;20371;-63
2021/03/05 05:51:26;;;;;;;31.67;19.40;;;281.70;1024.00;;;;;;5072350;28;20028;-63
2021/03/05 05:53:54;;;;;;;33.65;18.35;;;281.80;998.40;;;;;;5072608;28;20049;-62
2021/03/05 05:56:20;;;;;;;31.47;18.77;;;282.00;998.40;;;;;;5071139;28;20021;-63
2021/03/05 05:58:46;;;;;;;26.45;17.38;;;282.10;972.80;;;;;;5071860;28;20037;-62
2021/03/05 06:01:13;;;;;;;28.92;18.40;;;282.20;972.80;;;;;;5073335;28;20106;-66
2021/03/05 06:03:40;;;;;;;31.33;19.20;;;282.30;972.80;;;;;;5073425;28;20529;-63
2021/03/05 06:06:06;;;;;;;24.80;16.70;;;282.40;947.20;;;;;;5054617;28;20024;-64
2021/03/05 06:08:32;;;;;;;26.55;16.67;;;282.40;947.20;;;;;;5072759;28;20028;-65
2021/03/05 06:10:59;;;;;;;26.33;15.65;;;307.20;972.80;;;;;;5055045;28;20023;-64
2021/03/05 06:13:26;;;;;;;29.83;15.68;;;;;;;;;;5072643;28;20509;-66
2021/03/05 06:16:10;;;;;;;22.45;14.55;;;;;;;;;;5058245;28;20048;-65
2021/03/05 06:18:36;;;;;;;29.25;15.52;;;307.90;896.00;;;;;;5071829;28;20085;-64
2021/03/05 06:21:02;;;;;;;21.30;13.27;;;307.80;896.00;;;;;;5072983;28;20063;-65
2021/03/05 06:23:28;;;;;;;21.30;13.23;;;307.90;896.00;;;;;;5072493;28;20036;-65
2021/03/05 06:26:00;;;;;;;22.55;15.00;;;308.00;870.40;;;;;;5072595;28;20111;-66
2021/03/05 06:28:27;;;;;;;26.42;15.18;;;308.10;870.40;;;;;;5072189;28;20056;-65
2021/03/05 06:30:53;;;;;;;27.90;14.23;;;332.80;870.40;;;;;;5072460;28;20364;-64
2021/03/05 06:33:26;;;;;;;22.08;14.43;;;332.90;870.40;;;;;;5072426;28;20032;-69
2021/03/05 06:35:52;;;;;;;22.30;13.88;;;333.00;870.40;;;;;;5071449;28;20031;-64
2021/03/05 06:38:44;;;;;;;26.60;16.05;;;333.10;870.40;;;;;;5071845;28;20075;-63
2021/03/05 06:41:18;;;;;;;30.48;16.83;;;333.10;844.80;;;;;;5072182;28;20489;-63
2021/03/05 06:43:46;;;;;;;28.00;16.15;;;333.20;870.40;;;;;;5071847;28;20396;-63
2021/03/05 06:46:40;;;;;;;24.50;14.80;;;333.30;844.80;;;;;;5072316;28;20189;-63
2021/03/05 06:49:16;;;;;;;29.52;15.65;;;333.30;844.80;;;;;;5072580;28;20031;-64
2021/03/05 06:51:54;;;;;;;24.83;15.23;;;333.40;844.80;;;;;;5070619;28;20032;-64
2021/03/05 06:54:20;;;;;;;29.08;15.52;;;333.40;844.80;;;;;;5071680;28;20120;-63
2021/03/05 06:56:52;;;;;;;29.05;16.08;;;333.40;844.80;;;;;;5071038;28;20023;-64
2021/03/05 06:59:20;;;;;;;30.92;14.40;;;333.40;819.20;;;;;;5075237;28;20021;-64
2021/03/05 07:01:52;;;;;;;22.13;14.27;;;333.50;819.20;;;;;;5075308;28;20074;-64
2021/03/05 07:04:21;;;;;;;25.35;14.93;;;333.60;819.20;;;;;;5074796;28;20354;-65
2021/03/05 07:06:54;;;;;;;25.95;15.50;;;333.70;819.20;;;;;;5074176;28;20095;-63
2021/03/05 07:09:23;;;;;;;21.27;12.45;;;358.40;793.60;;;;;;5075023;28;20028;-62
2021/03/05 07:11:51;;;;;;;17.88;12.23;;;358.50;768.00;;;;;;5074819;28;20471;-63
2021/03/05 07:14:17;;;;;;;20.15;11.77;;;358.60;768.00;;;;;;5075182;28;20437;-63
2021/03/05 07:16:46;;;;;;;15.90;10.75;;;358.60;742.40;;;;;;5073387;28;20021;-63
2021/03/05 07:19:12;;;;;;;;;;;358.70;742.40;;;;;;5075870;28;20032;-62
2021/03/05 07:21:40;;;;;;;16.83;10.10;;;358.70;742.40;;;;;;5074912;28;19911;-62
2021/03/05 07:24:07;;;;;;;17.45;10.52;;;358.70;716.80;;;;;;5076027;28;20013;-63
2021/03/05 07:26:44;;;;;;;14.82;9.50;;;358.80;716.80;;;;;;5075802;28;20043;-62
2021/03/05 07:29:43;;;;;;;16.58;9.23;;;358.90;716.80;;;;;;5075819;28;20096;-62
2021/03/05 07:32:20;;;;;;;19.42;9.90;;;359.00;716.80;;;;;;5074528;28;20111;-62
2021/03/05 07:34:59;;;;;;;12.85;9.07;;;359.20;691.20;;;;;;5074075;28;20036;-62
2021/03/05 07:37:54;;;;;;;21.08;9.68;;;384.00;691.20;;;;;;5072199;28;20023;-63
2021/03/05 07:40:21;;;;;;;17.30;10.30;;;384.20;665.60;;;;;;5074139;28;20096;-63
2021/03/05 07:42:48;;;;;;;19.42;10.10;;;384.30;665.60;;;;;;5074582;28;20502;-62
2021/03/05 07:45:16;;;;;;;21.20;10.10;;;384.60;640.00;;;;;;5075450;28;20020;-61
2021/03/05 07:47:47;;;;;;;18.73;10.73;;;384.70;640.00;;;;;;5075205;28;20028;-62
2021/03/05 07:50:15;;;;;;;17.35;10.15;;;384.90;640.00;;;;;;5074587;28;20023;-62
2021/03/05 07:52:42;;;;;;;16.42;9.07;;;409.80;640.00;;;;;;5074566;28;20031;-62
2021/03/05 07:55:08;;;;;;;21.05;10.60;;;409.90;640.00;;;;;;5073398;28;20095;-63
2021/03/05 07:57:34;;;;;;;17.80;10.38;;;410.10;614.40;;;;;;5074168;28;20111;-61
2021/03/05 08:00:01;;;;;;;18.85;9.63;;;410.30;614.40;;;;;;5074449;28;20423;-60
2021/03/05 08:02:51;;;;;;;14.65;8.80;;;410.40;588.80;;;;;;5074588;28;20029;-60
2021/03/05 08:05:33;;;;;;;19.55;9.25;;;410.40;588.80;;;;;;5012593;28;20113;-60
2021/03/05 08:08:14;;;;;;;14.77;9.38;;;410.50;588.80;;;;;;5012704;28;20030;-61
2021/03/05 08:10:49;;;;;;;12.68;8.60;;;435.30;588.80;;;;;;5012473;28;20041;-61
2021/03/05 08:13:51;;;;;;;16.65;8.32;;;435.30;588.80;;;;;;5012376;28;20045;-61
2021/03/05 08:16:25;;;;;;;11.68;8.50;;;435.50;563.20;;;;;;5012857;28;20496;-61
2021/03/05 08:18:51;;;;;;;15.82;9.02;;;435.40;563.20;;;;;;5012752;28;20080;-60
2021/03/05 08:21:16;;;;;;;14.07;9.10;;;435.40;563.20;;;;;;5012398;28;20030;-61
2021/03/05 08:24:21;;;;;;;13.20;7.82;;;435.40;563.20;;;;;;4995888;28;20057;-62
2021/03/05 08:27:05;;;;;;;17.33;8.80;;;435.30;563.20;;;;;;5012864;28;20030;-60
2021/03/05 08:29:50;;;;;;;15.00;8.63;;;435.30;563.20;;;;;;5010642;28;20037;-60
2021/03/05 08:32:33;;;;;;;14.70;8.20;;;435.20;588.80;;;;;;5013051;28;20042;-59
2021/03/05 08:35:01;;;;;;;14.27;9.15;;;435.20;588.80;;;;;;5018297;28;20041;-62
2021/03/05 08:38:05;;;;;;;12.77;8.75;;;410.50;588.80;;;;;;5025632;28;20215;-61
2021/03/05 08:40:38;;;;;;;13.48;9.18;;;435.20;588.80;;;;;;5025854;28;20034;-61
2021/03/05 08:43:10;;;;;;;15.40;8.52;;;435.20;588.80;;;;;;5066306;28;20071;-61
2021/03/05 08:45:40;;;;;;;13.57;7.95;;;435.30;588.80;;;;;;5073264;28;20151;-61
2021/03/05 08:48:07;;;;;;;16.35;8.05;;;435.40;588.80;;;;;;5073422;28;20025;-61
2021/03/05 08:50:35;;;;;;;14.27;8.35;;;435.40;588.80;;;;;;5073058;28;20021;-60
2021/03/05 08:53:06;;;;;;;15.07;7.97;;;435.50;588.80;;;;;;5073249;28;20032;-61
2021/03/05 08:55:32;;;;;;;11.02;7.07;;;;;;;;;;5073972;28;20027;-63
2021/03/05 08:57:59;;;;;;;14.50;8.35;;;;;;;;;;5074233;28;20396;-61
2021/03/05 09:00:30;;;;;;;15.68;7.78;;;;;;;;;;5074554;28;20017;-60
2021/03/05 09:03:04;;;;;;;12.32;7.35;;;;;;;;;;5056237;28;20383;-61
2021/03/05 09:05:34;;;;;;;19.60;7.82;;;;;;;;;;5077787;28;20025;-61
2021/03/05 09:08:01;;;;;;;16.15;8.80;;;;;;;;;;5080137;28;20033;-62
2021/03/05 09:10:46;;;;;;;13.68;8.52;;;;;;;;;;5082230;28;20020;-61
2021/03/05 09:13:13;;;;;;;12.27;8.25;;;;;;;;;;5080169;28;20039;-63
2021/03/05 09:15:41;;;;;;;14.73;8.70;;;;;;;;;;5074567;28;20040;-61
2021/03/05 09:18:07;;;;;;;15.32;8.07;;;;;;;;;;5075101;28;20501;-63
2021/03/05 09:20:43;;;;;;;14.07;8.10;;;;;;;;;;5072088;28;20034;-60
2021/03/05 09:23:29;;;;;;;18.77;8.98;;;;;;;;;;5071752;28;20074;-60
2021/03/05 09:26:02;;;;;;;15.93;7.95;;;;;;;;;;5072543;28;20025;-61
2021/03/05 09:28:35;;;;;;;19.10;9.07;;;;;;;;;;5072452;28;20025;-59
2021/03/05 09:31:01;;;;;;;12.82;8.50;;;;;;;;;;5072407;28;20099;-61
2021/03/05 09:33:32;;;;;;;16.02;9.40;;;;;;;;;;5072125;28;20494;-60
2021/03/05 09:36:07;;;;;;;16.35;9.18;;;;;;;;;;5072536;28;20020;-60
2021/03/05 09:38:34;;;;;;;15.57;8.80;;;;;;;;;;5072486;28;20020;-60
2021/03/05 09:41:09;;;;;;;17.88;9.50;;;;;;;;;;5051207;28;20107;-60
2021/03/05 09:43:35;;;;;;;14.05;8.57;;;;;;;;;;5070242;28;20470;-63
2021/03/05 09:46:15;;;;;;;14.48;8.15;;;;;;;;;;5072660;28;20371;-62
2021/03/05 09:48:41;;;;;;;13.30;8.70;;;;;;;;;;5072121;28;20024;-63
2021/03/05 09:51:07;;;;;;;11.43;7.15;;;;;;;;;;5072135;28;20031;-61
2021/03/05 09:53:35;;;;;;;17.63;8.85;;;;;;;;;;5072131;28;20032;-62
2021/03/05 09:56:02;;;;;;;13.82;8.70;;;;;;;;;;5072774;28;20146;-62
2021/03/05 09:58:29;;;;;;;13.35;8.30;;;;;;;;;;5072823;28;20116;-61
2021/03/05 10:00:55;;;;;;;14.27;7.72;;;;;;;;;;5072641;28;20546;-60
2021/03/05 10:03:22;;;;;;;13.85;8.60;;;;;;;;;;5072895;28;20028;-60
2021/03/05 10:05:48;;;;;;;15.27;8.13;;;;;;;;;;5072288;28;20103;-62
2021/03/05 10:08:15;;;;;;;21.27;9.75;;;;;;;;;;5072441;28;20079;-60
2021/03/05 10:10:58;;;;;;;17.50;8.48;;;;;;;;;;5072507;28;20074;-62
2021/03/05 10:13:43;;;;;;;14.60;9.00;;;;;;;;;;5072225;28;20044;-61
2021/03/05 10:16:17;;;;;;;17.08;8.90;;;;;;;;;;5072465;28;20028;-61
2021/03/05 10:18:43;;;;;;;11.27;7.57;;;;;;;;;;5072635;28;20020;-59
2021/03/05 10:21:12;;;;;;;19.17;9.50;;;;;;;;;;5072043;28;20052;-62
2021/03/05 10:23:38;;;;;;;;;;;;;;;;;;5071922;28;20024;-61
2021/03/05 10:26:11;;;;;;;15.25;9.57;;;;;;;;;;5071744;28;19913;-63
2021/03/05 10:28:39;;;;;;;19.70;11.23;;;;;;;;;;5053672;28;20094;-60
2021/03/05 10:31:05;;;;;;;26.98;12.13;;;;;;;;;;5071901;28;20482;-63
2021/03/05 10:33:38;;;;;;;24.55;12.30;;;;;;;;;;5075666;28;20032;-63
2021/03/05 10:36:05;;;;;;;24.35;12.15;;;;;;;;;;5076439;28;20013;-62
2021/03/05 10:38:31;;;;;;;19.30;10.00;;;;;;;;;;5075615;28;20024;-62
2021/03/05 10:40:57;;;;;;;14.23;8.73;;;;;;;;;;5075527;28;20030;-60
2021/03/05 10:43:23;;;;;;;14.70;8.77;;;;;;;;;;5075582;28;20056;-60
2021/03/05 10:45:49;;;;;;;17.35;9.40;;;;;;;;;;5075779;28;20055;-61
2021/03/05 10:48:15;;;;;;;14.95;9.18;;;;;;;;;;5076271;28;20016;-61
2021/03/05 10:50:41;;;;;;;21.55;9.00;;;;;;;;;;5074841;28;20028;-61
2021/03/05 10:53:07;;;;;;;15.20;8.63;;;;;;;;;;5075549;28;20115;-61
2021/03/05 10:55:33;;;;;;;13.98;7.95;;;;;;;;;;5074630;28;20055;-60
2021/03/05 10:57:59;;;;;;;18.52;8.95;;;;;;;;;;5075366;28;20012;-60
2021/03/05 11:00:26;;;;;;;10.63;7.35;;;;;;;;;;5074673;28;20032;-60
2021/03/05 11:02:52;;;;;;;10.75;8.00;;;;;;;;;;5075398;28;20024;-61
2021/03/05 11:05:18;;;;;;;13.57;8.35;;;;;;;;;;5075536;28;20044;-60
2021/03/05 11:07:44;;;;;;;17.38;8.95;;;;;;;;;;5074882;28;20374;-62
2021/03/05 11:10:10;;;;;;;17.52;8.88;;;;;;;;;;5074985;28;20385;-61
2021/03/05 11:12:36;;;;;;;11.65;8.07;;;;;;;;;;5054553;28;20428;-61
2021/03/05 11:15:04;;;;;;;14.38;8.15;;;;;;;;;;5075062;28;20086;-61
2021/03/05 11:17:30;;;;;;;16.40;8.48;;;;;;;;;;5075140;28;20032;-60
2021/03/05 11:19:56;;;;;;;15.23;8.73;;;;;;;;;;5074781;28;20023;-60
2021/03/05 11:22:23;;;;;;;14.75;8.43;;;;;;;;;;5072223;22;20060;-60
2021/03/05 11:24:49;;;;;;;15.32;8.05;;;;;;;;;;5044351;28;20520;-61
2021/03/05 11:27:15;;;;;;;13.10;8.27;;;;;;;;;;5037277;28;20029;-60
2021/03/05 11:29:41;;;;;;;12.75;8.32;;;;;;;;;;5018575;28;20386;-60
2021/03/05 11:32:07;;;;;;;14.82;8.95;;;;;;;;;;5037554;28;20064;-61
2021/03/05 11:34:34;;;;;;;15.60;8.35;;;;;;;;;;5045257;28;20120;-62
2021/03/05 11:37:00;;;;;;;17.33;8.98;;;;;;;;;;5054203;28;20068;-60
2021/03/05 11:39:26;;;;;;;15.18;9.45;;;;;;;;;;5035716;28;20037;-61
2021/03/05 11:41:54;;;;;;;12.40;7.95;;;;;;;;;;5054626;28;20455;-60
2021/03/05 11:44:20;;;;;;;12.07;8.23;;;;;;;;;;5053334;28;20104;-60
2021/03/05 11:46:46;;;;;;;12.00;8.15;;;;;;;;;;5031129;28;20044;-60
2021/03/05 11:49:12;;;;;;;16.90;9.07;;;;;;;;;;5032979;28;20116;-61
2021/03/05 11:51:38;;;;;;;20.15;7.53;;;;;;;;;;5051987;28;20040;-62
2021/03/05 11:54:05;;;;;;;15.13;7.85;;;;;;;;;;5043617;28;20044;-66
2021/03/05 11:56:31;;;;;;;14.90;8.18;;;;;;;;;;5045471;28;20159;-60
2021/03/05 11:58:57;;;;;;;10.52;7.22;;;;;;;;;;5053090;28;20067;-60
2021/03/05 12:01:23;;;;;;;9.60;7.90;;;;;;;;;;5054493;28;20029;-62
2021/03/05 12:03:49;;;;;;;18.25;8.23;;;;;;;;;;5037469;28;20108;-63
2021/03/05 12:06:15;;;;;;;10.65;7.40;;;;;;;;;;5034313;28;20496;-63
2021/03/05 12:08:41;;;;;;;12.60;8.05;;;;;;;;;;5033672;28;20041;-63
2021/03/05 12:11:07;;;;;;;15.05;7.28;;;;;;;;;;5043812;28;20025;-63
2021/03/05 12:13:33;;;;;;;9.90;6.93;;;;;;;;;;5053820;28;20036;-64
2021/03/05 12:15:59;;;;;;;16.17;7.53;;;;;;;;;;5053878;28;20463;-63
2021/03/05 12:18:25;;;;;;;15.98;8.98;;;;;;;;;;5041376;28;20030;-63
2021/03/05 12:20:51;;;;;;;14.30;9.07;;;;;;;;;;5028543;28;20482;-64
2021/03/05 12:23:18;;;;;;;14.32;8.45;;;;;;;;;;5051976;28;20109;-65
2021/03/05 12:25:44;;;;;;;10.88;8.40;;;;;;;;;;5077473;28;20028;-65
2021/03/05 12:28:10;;;;;;;15.23;8.38;;;;;;;;;;5073726;28;20029;-64
2021/03/05 12:30:36;;;;;;;20.85;8.90;;;;;;;;;;5080769;28;20462;-66
2021/03/05 12:33:02;;;;;;;16.55;9.25;;;;;;;;;;5064338;28;20040;-66
2021/03/05 12:35:29;;;;;;;18.15;9.98;;;;;;;;;;5072289;28;20532;-66
2021/03/05 12:37:55;;;;;;;11.85;7.97;;;;;;;;;;5038261;28;20033;-66
2021/03/05 12:40:21;;;;;;;15.48;7.90;;;;;;;;;;5054025;28;20028;-65
2021/03/05 12:42:47;;;;;;;16.10;8.50;;;;;;;;;;5079831;28;20040;-64
2021/03/05 12:45:13;;;;;;;10.27;7.35;;;;;;;;;;5085364;28;20020;-65
2021/03/05 12:47:40;;;;;;;15.05;8.57;;;;;;;;;;5094103;28;20031;-63
2021/03/05 12:50:07;;;;;;;11.68;7.57;;;;;;;;;;5094400;28;20028;-64
2021/03/05 12:52:33;;;;;;;11.65;7.30;;;;;;;;;;5094294;28;20035;-63
2021/03/05 12:54:59;;;;;;;11.43;7.97;;;;;;;;;;5093876;28;20496;-64